createdAt,value
2018-05-13T00:00:25.458Z,12.43
2018-05-13T00:01:28.793Z,14.02
2018-05-13T00:02:32.156Z,11.25
2018-05-13T00:03:35.485Z,11.80
2018-05-13T00:04:38.799Z,13.82
2018-05-13T00:05:42.120Z,14.48
2018-05-13T00:06:45.571Z,9.98
2018-05-13T00:07:48.908Z,11.10
2018-05-13T00:08:52.227Z,10.98
2018-05-13T00:09:55.567Z,12.90
2018-05-13T00:10:58.913Z,13.35
2018-05-13T00:12:02.262Z,13.25
2018-05-13T00:13:05.618Z,11.48
2018-05-13T00:14:08.941Z,14.50
2018-05-13T00:15:12.266Z,14.93
2018-05-13T00:16:15.602Z,12.68
2018-05-13T00:17:18.927Z,10.70
2018-05-13T00:18:22.277Z,11.77
2018-05-13T00:19:25.607Z,11.80
2018-05-13T00:20:28.940Z,13.52
2018-05-13T00:21:32.267Z,13.90
2018-05-13T00:22:35.590Z,12.25
2018-05-13T00:23:39.214Z,18.75
2018-05-13T00:24:42.627Z,13.55
2018-05-13T00:25:46.106Z,9.75
2018-05-13T00:26:49.438Z,13.50
2018-05-13T00:27:52.742Z,12.02
2018-05-13T00:28:56.158Z,13.82
2018-05-13T00:29:59.496Z,10.00
2018-05-13T00:31:02.828Z,11.82
2018-05-13T00:32:06.154Z,12.90
2018-05-13T00:33:09.472Z,11.70
2018-05-13T00:34:12.831Z,13.05
2018-05-13T00:35:16.229Z,11.30
2018-05-13T00:36:19.538Z,15.20
2018-05-13T00:37:22.887Z,15.85
2018-05-13T00:38:26.523Z,13.23
2018-05-13T00:39:29.875Z,12.25
2018-05-13T00:40:33.190Z,11.43
2018-05-13T00:41:36.507Z,14.25
2018-05-13T00:42:39.833Z,13.75
2018-05-13T00:43:43.159Z,15.85
2018-05-13T00:44:46.543Z,12.32
2018-05-13T00:45:49.876Z,12.27
2018-05-13T00:46:53.203Z,12.65
2018-05-13T00:47:56.532Z,10.95
2018-05-13T00:48:59.989Z,13.02
2018-05-13T00:50:03.374Z,15.32
2018-05-13T00:51:06.763Z,16.02
2018-05-13T00:52:10.084Z,11.38
2018-05-13T00:53:13.418Z,12.45
2018-05-13T00:54:28.482Z,15.55
2018-05-13T00:55:31.838Z,13.98
2018-05-13T00:56:35.154Z,12.20
2018-05-13T00:57:38.542Z,11.68
2018-05-13T00:58:41.899Z,15.35
2018-05-13T00:59:45.223Z,11.98
2018-05-13T01:00:48.551Z,10.60
2018-05-13T01:01:51.861Z,10.60
2018-05-13T01:02:55.183Z,14.50
2018-05-13T01:03:58.492Z,11.07
2018-05-13T01:05:01.808Z,14.50
2018-05-13T01:06:05.160Z,14.38
2018-05-13T01:07:08.483Z,13.52
2018-05-13T01:08:11.987Z,11.25
2018-05-13T01:09:15.319Z,10.75
2018-05-13T01:10:18.719Z,11.63
2018-05-13T01:11:22.039Z,11.20
2018-05-13T01:12:25.375Z,12.63
2018-05-13T01:13:28.704Z,10.20
2018-05-13T01:14:32.029Z,13.73
2018-05-13T01:15:35.349Z,11.95
2018-05-13T01:16:38.682Z,12.82
2018-05-13T01:17:42.007Z,11.18
2018-05-13T01:18:45.318Z,10.90
2018-05-13T01:19:48.630Z,10.80
2018-05-13T01:20:51.984Z,10.90
2018-05-13T01:21:55.315Z,13.85
2018-05-13T01:22:58.637Z,11.40
2018-05-13T01:24:02.213Z,14.65
2018-05-13T01:25:05.525Z,13.35
2018-05-13T01:26:08.844Z,15.43
2018-05-13T01:27:12.190Z,13.70
2018-05-13T01:28:15.514Z,12.18
2018-05-13T01:29:18.855Z,13.15
2018-05-13T01:30:22.167Z,17.25
2018-05-13T01:31:25.501Z,13.27
2018-05-13T01:32:28.893Z,13.13
2018-05-13T01:33:32.219Z,16.80
2018-05-13T01:34:35.635Z,11.12
2018-05-13T01:35:38.974Z,11.73
2018-05-13T01:36:42.494Z,11.90
2018-05-13T01:37:45.851Z,12.40
2018-05-13T01:38:49.170Z,11.15
2018-05-13T01:39:52.513Z,12.80
2018-05-13T01:40:55.838Z,12.00
2018-05-13T01:41:59.170Z,13.73
2018-05-13T01:43:02.510Z,11.00
2018-05-13T01:44:05.879Z,11.60
2018-05-13T01:45:09.348Z,10.52
2018-05-13T01:46:12.667Z,12.00
2018-05-13T01:47:15.971Z,9.88
2018-05-13T01:48:19.313Z,11.52
2018-05-13T01:49:22.625Z,13.90
2018-05-13T01:50:25.949Z,9.70
2018-05-13T01:51:29.263Z,12.98
2018-05-13T01:52:32.573Z,13.62
2018-05-13T01:53:35.937Z,10.38
2018-05-13T01:54:39.261Z,11.50
2018-05-13T01:55:42.597Z,10.32
2018-05-13T01:56:45.916Z,12.10
2018-05-13T01:57:49.238Z,11.70
2018-05-13T01:58:52.611Z,10.80
2018-05-13T01:59:56.013Z,15.63
2018-05-13T02:00:59.323Z,10.77
2018-05-13T02:02:02.634Z,11.35
2018-05-13T02:03:05.951Z,10.48
2018-05-13T02:04:09.290Z,12.23
2018-05-13T02:05:12.634Z,9.93
2018-05-13T02:06:15.947Z,10.68
2018-05-13T02:07:19.266Z,11.45
2018-05-13T02:08:22.592Z,11.85
2018-05-13T02:09:25.946Z,10.98
2018-05-13T02:10:29.254Z,12.57
2018-05-13T02:11:32.566Z,12.07
2018-05-13T02:12:35.884Z,11.15
2018-05-13T02:13:39.193Z,10.40
2018-05-13T02:14:42.540Z,14.15
2018-05-13T02:15:45.858Z,10.57
2018-05-13T02:16:49.310Z,12.77
2018-05-13T02:17:52.628Z,12.93
2018-05-13T02:18:55.962Z,12.37
2018-05-13T02:19:59.297Z,10.07
2018-05-13T02:21:02.624Z,11.75
2018-05-13T02:22:05.948Z,12.40
2018-05-13T02:23:09.269Z,10.85
2018-05-13T02:24:13.615Z,9.77
2018-05-13T02:25:16.948Z,10.25
2018-05-13T02:26:20.258Z,10.20
2018-05-13T02:27:23.579Z,10.32
2018-05-13T02:28:26.896Z,11.30
2018-05-13T02:29:30.234Z,10.38
2018-05-13T02:30:33.584Z,11.57
2018-05-13T02:31:36.889Z,10.68
2018-05-13T02:32:40.193Z,12.23
2018-05-13T02:33:43.518Z,11.30
2018-05-13T02:34:46.851Z,10.52
2018-05-13T02:35:50.190Z,12.77
2018-05-13T02:36:53.504Z,12.68
2018-05-13T02:37:56.818Z,13.15
2018-05-13T02:39:00.145Z,12.07
2018-05-13T02:40:03.496Z,10.40
2018-05-13T02:41:06.836Z,14.48
2018-05-13T02:42:10.152Z,14.40
2018-05-13T02:43:13.461Z,11.25
2018-05-13T02:44:16.798Z,12.32
2018-05-13T02:45:20.109Z,11.23
2018-05-13T02:46:23.455Z,15.40
2018-05-13T02:47:26.767Z,10.50
2018-05-13T02:48:30.090Z,13.90
2018-05-13T02:49:33.420Z,12.57
2018-05-13T02:50:36.750Z,11.73
2018-05-13T02:51:40.098Z,16.58
2018-05-13T02:52:43.427Z,12.77
2018-05-13T02:53:46.760Z,10.93
2018-05-13T02:54:50.092Z,12.18
2018-05-13T02:55:53.403Z,11.32
2018-05-13T02:56:56.755Z,11.18
2018-05-13T02:58:00.084Z,11.98
2018-05-13T02:59:03.397Z,10.15
2018-05-13T03:00:06.734Z,13.10
2018-05-13T03:01:10.056Z,11.43
2018-05-13T03:02:13.432Z,11.55
2018-05-13T03:03:16.744Z,10.85
2018-05-13T03:04:20.064Z,11.25
2018-05-13T03:05:23.391Z,11.27
2018-05-13T03:06:26.710Z,10.32
2018-05-13T03:07:30.046Z,11.90
2018-05-13T03:08:33.382Z,15.43
2018-05-13T03:09:36.696Z,11.18
2018-05-13T03:10:40.013Z,12.77
2018-05-13T03:11:43.333Z,10.90
2018-05-13T03:12:46.719Z,12.95
2018-05-13T03:13:50.048Z,13.93
2018-05-13T03:14:53.358Z,11.73
2018-05-13T03:15:56.678Z,11.50
2018-05-13T03:17:00.007Z,15.18
2018-05-13T03:18:03.355Z,12.40
2018-05-13T03:19:06.710Z,16.62
2018-05-13T03:20:10.013Z,13.20
2018-05-13T03:21:13.342Z,14.82
2018-05-13T03:22:16.668Z,13.48
2018-05-13T03:23:20.007Z,15.35
2018-05-13T03:24:23.437Z,11.55
2018-05-13T03:25:26.761Z,15.18
2018-05-13T03:26:30.075Z,13.10
2018-05-13T03:27:33.399Z,11.63
2018-05-13T03:28:36.766Z,13.27
2018-05-13T03:29:40.102Z,12.73
2018-05-13T03:30:43.426Z,13.35
2018-05-13T03:31:46.759Z,13.73
2018-05-13T03:32:50.139Z,19.17
2018-05-13T03:33:53.486Z,13.90
2018-05-13T03:34:56.808Z,12.75
2018-05-13T03:36:00.134Z,15.18
2018-05-13T03:37:03.457Z,15.70
2018-05-13T03:38:06.799Z,14.98
2018-05-13T03:39:10.252Z,12.27
2018-05-13T03:40:13.573Z,11.55
2018-05-13T03:41:16.976Z,12.57
2018-05-13T03:42:20.292Z,11.63
2018-05-13T03:43:23.610Z,11.07
2018-05-13T03:44:26.957Z,14.55
2018-05-13T03:45:30.411Z,13.48
2018-05-13T03:46:33.739Z,14.52
2018-05-13T03:47:37.063Z,14.07
2018-05-13T03:48:40.383Z,11.43
2018-05-13T03:49:43.726Z,17.17
2018-05-13T03:50:47.074Z,12.55
2018-05-13T03:51:50.395Z,12.75
2018-05-13T03:52:53.716Z,11.38
2018-05-13T03:53:57.059Z,10.75
2018-05-13T03:55:00.412Z,11.45
2018-05-13T03:56:03.731Z,11.60
2018-05-13T03:57:07.050Z,11.38
2018-05-13T03:58:10.401Z,12.75
2018-05-13T03:59:13.730Z,14.35
2018-05-13T04:00:17.091Z,12.20
2018-05-13T04:01:20.407Z,13.70
2018-05-13T04:02:23.716Z,13.02
2018-05-13T04:03:27.067Z,12.60
2018-05-13T04:04:30.386Z,13.40
2018-05-13T04:05:33.725Z,15.32
2018-05-13T04:06:37.045Z,17.87
2018-05-13T04:09:40.942Z,13.23
2018-05-13T04:10:56.024Z,12.23
2018-05-13T04:12:11.289Z,13.25
2018-05-13T04:13:26.426Z,13.10
2018-05-13T04:14:41.641Z,19.40
2018-05-13T04:15:45.052Z,11.50
2018-05-13T04:16:48.389Z,14.05
2018-05-13T04:17:51.719Z,15.60
2018-05-13T04:18:55.020Z,12.10
2018-05-13T04:19:58.338Z,11.90
2018-05-13T04:21:01.662Z,12.20
2018-05-13T04:22:05.033Z,12.95
2018-05-13T04:23:08.362Z,13.20
2018-05-13T04:24:11.731Z,13.40
2018-05-13T04:25:15.417Z,16.40
2018-05-13T04:26:18.671Z,17.52
2018-05-13T04:27:22.009Z,13.93
2018-05-13T04:28:25.476Z,13.45
2018-05-13T04:29:28.779Z,12.85
2018-05-13T04:30:32.094Z,13.82
2018-05-13T04:31:35.434Z,16.73
2018-05-13T04:32:38.797Z,14.70
2018-05-13T04:33:42.110Z,12.27
2018-05-13T04:34:45.435Z,13.02
2018-05-13T04:35:48.754Z,12.68
2018-05-13T04:36:52.146Z,18.42
2018-05-13T04:37:55.687Z,15.60
2018-05-13T04:38:59.032Z,14.73
2018-05-13T04:40:02.386Z,13.18
2018-05-13T04:41:05.713Z,13.70
2018-05-13T04:42:09.110Z,15.40
2018-05-13T04:43:12.423Z,12.63
2018-05-13T04:44:15.759Z,13.23
2018-05-13T04:45:19.081Z,17.87
2018-05-13T04:46:22.404Z,15.63
2018-05-13T04:47:25.735Z,19.17
2018-05-13T04:48:29.067Z,15.32
2018-05-13T04:49:32.390Z,21.42
2018-05-13T04:50:35.711Z,14.70
2018-05-13T04:51:39.178Z,13.43
2018-05-13T04:52:42.520Z,15.10
2018-05-13T04:53:45.970Z,14.63
2018-05-13T04:54:49.292Z,15.82
2018-05-13T04:55:52.655Z,14.40
2018-05-13T04:56:55.984Z,14.52
2018-05-13T04:57:59.298Z,14.48
2018-05-13T04:59:02.635Z,18.02
2018-05-13T05:00:05.974Z,16.65
2018-05-13T05:01:09.323Z,15.50
2018-05-13T05:02:12.690Z,16.45
2018-05-13T05:03:16.014Z,16.00
2018-05-13T05:04:19.362Z,17.92
2018-05-13T05:05:22.689Z,19.40
2018-05-13T05:06:26.025Z,13.68
2018-05-13T05:07:29.396Z,19.10
2018-05-13T05:08:32.706Z,17.77
2018-05-13T05:09:36.053Z,18.77
2018-05-13T05:10:39.403Z,16.98
2018-05-13T05:11:42.730Z,19.25
2018-05-13T05:12:46.059Z,14.68
2018-05-13T05:13:49.384Z,16.40
2018-05-13T05:14:52.755Z,18.20
2018-05-13T05:15:56.067Z,20.52
2018-05-13T05:16:59.376Z,16.35
2018-05-13T05:18:02.714Z,15.70
2018-05-13T05:19:06.023Z,19.87
2018-05-13T05:20:09.367Z,26.67
2018-05-13T05:21:12.720Z,17.55
2018-05-13T05:22:16.063Z,14.52
2018-05-13T05:23:19.410Z,16.30
2018-05-13T05:24:22.729Z,16.50
2018-05-13T05:25:26.398Z,16.23
2018-05-13T05:26:29.751Z,15.98
2018-05-13T05:27:33.072Z,16.35
2018-05-13T05:28:36.398Z,15.07
2018-05-13T05:29:39.731Z,15.95
2018-05-13T05:30:43.067Z,18.35
2018-05-13T05:31:46.403Z,17.30
2018-05-13T05:32:49.717Z,19.67
2018-05-13T05:33:53.056Z,20.17
2018-05-13T05:34:56.391Z,23.50
2018-05-13T05:35:59.754Z,16.48
2018-05-13T05:37:03.079Z,16.05
2018-05-13T05:38:06.425Z,23.90
2018-05-13T05:39:09.766Z,14.60
2018-05-13T05:40:13.087Z,20.08
2018-05-13T05:41:16.443Z,25.48
2018-05-13T05:42:19.794Z,14.32
2018-05-13T05:43:23.151Z,18.62
2018-05-13T05:44:26.484Z,14.02
2018-05-13T05:45:29.812Z,15.57
2018-05-13T05:46:33.160Z,18.73
2018-05-13T05:47:36.508Z,19.17
2018-05-13T05:48:39.819Z,20.73
2018-05-13T05:49:43.152Z,16.52
2018-05-13T05:50:46.458Z,18.17
2018-05-13T05:51:49.818Z,15.27
2018-05-13T05:52:53.143Z,17.30
2018-05-13T05:53:56.500Z,15.73
2018-05-13T05:54:59.814Z,18.30
2018-05-13T05:56:03.158Z,24.75
2018-05-13T05:57:06.563Z,15.30
2018-05-13T05:58:09.891Z,20.62
2018-05-13T05:59:13.214Z,21.90
2018-05-13T06:00:16.534Z,20.08
2018-05-13T06:01:19.857Z,17.93
2018-05-13T06:02:23.210Z,22.53
2018-05-13T06:03:26.522Z,20.47
2018-05-13T06:04:29.840Z,20.20
2018-05-13T06:05:33.241Z,18.70
2018-05-13T06:06:36.627Z,18.00
2018-05-13T06:07:39.969Z,21.10
2018-05-13T06:08:43.282Z,18.47
2018-05-13T06:09:46.599Z,18.70
2018-05-13T06:10:49.923Z,26.33
2018-05-13T06:11:53.236Z,22.33
2018-05-13T06:12:56.578Z,17.73
2018-05-13T06:13:59.902Z,21.63
2018-05-13T06:15:03.228Z,18.50
2018-05-13T06:16:06.580Z,20.20
2018-05-13T06:17:09.891Z,22.57
2018-05-13T06:18:13.246Z,20.90
2018-05-13T06:19:16.635Z,22.80
2018-05-13T06:20:20.018Z,19.43
2018-05-13T06:21:23.343Z,20.83
2018-05-13T06:22:26.685Z,22.07
2018-05-13T06:23:30.174Z,23.20
2018-05-13T06:24:33.493Z,26.13
2018-05-13T06:25:37.090Z,27.30
2018-05-13T06:26:40.419Z,20.40
2018-05-13T06:27:43.739Z,23.90
2018-05-13T06:28:47.110Z,20.02
2018-05-13T06:29:50.423Z,19.73
2018-05-13T06:30:53.765Z,27.87
2018-05-13T06:31:57.097Z,27.57
2018-05-13T06:33:00.482Z,23.37
2018-05-13T06:34:03.829Z,24.30
2018-05-13T06:35:07.150Z,24.60
2018-05-13T06:36:10.480Z,26.10
2018-05-13T06:37:13.795Z,23.30
2018-05-13T06:38:17.102Z,21.17
2018-05-13T06:39:20.466Z,20.73
2018-05-13T06:40:23.779Z,20.33
2018-05-13T06:41:27.103Z,20.70
2018-05-13T06:42:30.424Z,21.03
2018-05-13T06:43:33.745Z,18.30
2018-05-13T06:44:37.158Z,19.00
2018-05-13T06:45:40.457Z,19.07
2018-05-13T06:46:43.774Z,24.70
2018-05-13T06:47:47.097Z,20.43
2018-05-13T06:48:50.416Z,23.93
2018-05-13T06:49:53.846Z,20.73
2018-05-13T06:50:57.205Z,23.07
2018-05-13T06:52:00.493Z,19.13
2018-05-13T06:53:03.818Z,20.60
2018-05-13T06:54:07.123Z,15.40
2018-05-13T06:55:10.468Z,16.50
2018-05-13T06:56:13.795Z,17.00
2018-05-13T06:57:17.191Z,20.40
2018-05-13T06:58:20.648Z,18.13
2018-05-13T06:59:23.971Z,20.57
2018-05-13T07:00:27.318Z,20.20
2018-05-13T07:01:30.626Z,20.50
2018-05-13T07:02:33.952Z,20.80
2018-05-13T07:03:37.247Z,22.53
2018-05-13T07:04:40.564Z,20.80
2018-05-13T07:05:43.902Z,20.03
2018-05-13T07:06:47.240Z,27.83
2018-05-13T07:07:50.555Z,25.67
2018-05-13T07:08:53.862Z,19.83
2018-05-13T07:09:57.187Z,24.73
2018-05-13T07:11:00.525Z,20.20
2018-05-13T07:12:03.845Z,21.20
2018-05-13T07:13:07.174Z,22.10
2018-05-13T07:14:10.488Z,19.10
2018-05-13T07:15:13.811Z,23.00
2018-05-13T07:16:17.152Z,21.93
2018-05-13T07:17:20.470Z,24.60
2018-05-13T07:18:23.779Z,32.13
2018-05-13T07:19:27.103Z,25.03
2018-05-13T07:20:30.419Z,28.53
2018-05-13T07:21:33.778Z,28.40
2018-05-13T07:22:37.094Z,25.17
2018-05-13T07:23:40.791Z,24.60
2018-05-13T07:24:44.113Z,26.60
2018-05-13T07:25:47.669Z,24.20
2018-05-13T07:26:51.007Z,27.77
2018-05-13T07:27:54.319Z,28.20
2018-05-13T07:28:57.639Z,24.83
2018-05-13T07:30:00.962Z,27.83
2018-05-13T07:31:04.274Z,32.50
2018-05-13T07:32:07.615Z,28.00
2018-05-13T07:33:11.007Z,25.33
2018-05-13T07:34:14.335Z,31.67
2018-05-13T07:35:17.642Z,34.57
2018-05-13T07:36:21.046Z,28.47
2018-05-13T07:37:24.390Z,30.57
2018-05-13T07:38:27.776Z,37.60
2018-05-13T07:39:31.118Z,34.70
2018-05-13T07:40:34.435Z,32.27
2018-05-13T07:41:37.747Z,32.77
2018-05-13T07:42:41.087Z,30.40
2018-05-13T07:43:44.391Z,34.97
2018-05-13T07:44:47.707Z,36.10
2018-05-13T07:45:51.016Z,41.30
2018-05-13T07:46:54.328Z,37.73
2018-05-13T07:47:57.781Z,35.70
2018-05-13T07:49:01.095Z,39.50
2018-05-13T07:50:04.402Z,38.80
2018-05-13T07:51:07.731Z,44.27
2018-05-13T07:52:11.046Z,37.85
2018-05-13T07:53:14.390Z,37.17
2018-05-13T07:54:17.711Z,41.67
2018-05-13T07:55:21.032Z,42.67
2018-05-13T07:56:24.343Z,35.70
2018-05-13T07:57:27.678Z,39.33
2018-05-13T07:58:32.359Z,38.30
2018-05-13T07:59:35.698Z,37.00
2018-05-13T08:00:39.029Z,45.57
2018-05-13T08:01:42.336Z,43.87
2018-05-13T08:02:45.650Z,42.67
2018-05-13T08:03:48.993Z,48.77
2018-05-13T08:04:52.301Z,43.50
2018-05-13T08:05:55.618Z,44.80
2018-05-13T08:06:58.929Z,40.57
2018-05-13T08:08:02.282Z,42.20
2018-05-13T08:09:05.695Z,44.80
2018-05-13T08:10:09.017Z,44.40
2018-05-13T08:11:12.428Z,48.40
2018-05-13T08:12:15.718Z,46.90
2018-05-13T08:13:19.243Z,39.53
2018-05-13T08:14:22.603Z,43.73
2018-05-13T08:15:25.932Z,45.40
2018-05-13T08:16:29.259Z,48.13
2018-05-13T08:17:32.579Z,45.43
2018-05-13T08:18:35.885Z,43.30
2018-05-13T08:19:39.235Z,42.78
2018-05-13T08:20:42.583Z,48.10
2018-05-13T08:21:45.894Z,45.93
2018-05-13T08:22:49.208Z,45.30
2018-05-13T08:23:52.584Z,48.63
2018-05-13T08:24:55.911Z,44.97
2018-05-13T08:25:59.338Z,40.97
2018-05-13T08:27:02.646Z,49.73
2018-05-13T08:28:05.983Z,53.90
2018-05-13T08:29:09.399Z,51.17
2018-05-13T08:30:12.751Z,56.03
2018-05-13T08:31:16.066Z,49.83
2018-05-13T08:32:19.378Z,48.40
2018-05-13T08:33:22.707Z,50.90
2018-05-13T08:34:26.075Z,46.30
2018-05-13T08:35:29.414Z,51.20
2018-05-13T08:36:32.768Z,55.60
2018-05-13T08:37:36.132Z,57.50
2018-05-13T08:38:39.453Z,57.27
2018-05-13T08:39:42.994Z,56.70
2018-05-13T08:40:46.319Z,58.43
2018-05-13T08:41:49.967Z,60.77
2018-05-13T08:42:53.337Z,55.23
2018-05-13T08:43:56.652Z,54.17
2018-05-13T08:44:59.969Z,58.80
2018-05-13T08:46:03.314Z,60.40
2018-05-13T08:47:06.627Z,53.67
2018-05-13T08:48:09.937Z,65.43
2018-05-13T08:49:13.263Z,62.53
2018-05-13T08:50:16.600Z,59.47
2018-05-13T08:51:19.947Z,60.13
2018-05-13T08:52:23.272Z,63.22
2018-05-13T08:53:26.636Z,61.88
2018-05-13T08:54:29.963Z,60.20
2018-05-13T08:55:33.286Z,68.33
2018-05-13T08:56:36.638Z,63.13
2018-05-13T08:57:39.987Z,66.05
2018-05-13T08:58:43.326Z,66.28
2018-05-13T08:59:46.636Z,57.47
2018-05-13T09:00:49.972Z,64.30
2018-05-13T09:01:53.328Z,70.93
2018-05-13T09:02:56.647Z,64.87
2018-05-13T09:03:59.960Z,71.17
2018-05-13T09:05:03.282Z,65.22
2018-05-13T09:06:06.621Z,65.47
2018-05-13T09:07:09.953Z,71.53
2018-05-13T09:08:13.295Z,67.90
2018-05-13T09:09:16.630Z,66.07
2018-05-13T09:10:19.943Z,75.80
2018-05-13T09:11:23.286Z,74.30
2018-05-13T09:12:26.635Z,71.03
2018-05-13T09:13:29.983Z,73.07
2018-05-13T09:14:33.300Z,68.70
2018-05-13T09:15:36.623Z,72.72
2018-05-13T09:16:40.200Z,77.25
2018-05-13T09:17:43.552Z,72.95
2018-05-13T09:18:46.973Z,78.65
2018-05-13T09:19:50.306Z,77.15
2018-05-13T09:20:53.658Z,77.15
2018-05-13T09:21:56.963Z,78.07
2018-05-13T09:23:00.319Z,80.65
2018-05-13T09:24:03.631Z,85.40
2018-05-13T09:25:06.965Z,78.30
2018-05-13T09:26:10.664Z,83.40
2018-05-13T09:27:14.045Z,78.37
2018-05-13T09:28:17.594Z,88.37
2018-05-13T09:29:20.919Z,84.62
2018-05-13T09:30:24.296Z,72.93
2018-05-13T09:31:27.622Z,81.53
2018-05-13T09:32:30.939Z,77.53
2018-05-13T09:33:34.310Z,89.95
2018-05-13T09:34:37.671Z,81.00
2018-05-13T09:35:40.995Z,81.67
2018-05-13T09:36:44.320Z,82.53
2018-05-13T09:37:47.655Z,80.20
2018-05-13T09:38:51.099Z,89.70
2018-05-13T09:39:54.431Z,76.85
2018-05-13T09:40:57.764Z,89.35
2018-05-13T09:42:01.092Z,95.22
2018-05-13T09:43:04.421Z,86.68
2018-05-13T09:44:07.763Z,82.72
2018-05-13T09:45:11.123Z,92.28
2018-05-13T09:46:14.441Z,81.30
2018-05-13T09:48:27.455Z,89.43
2018-05-13T09:49:30.798Z,90.03
2018-05-13T09:50:34.119Z,90.10
2018-05-13T09:51:37.460Z,94.10
2018-05-13T09:52:40.775Z,83.60
2018-05-13T09:53:44.090Z,100.63
2018-05-13T09:54:47.443Z,98.32
2018-05-13T09:55:50.820Z,88.37
2018-05-13T09:56:54.207Z,96.90
2018-05-13T09:57:57.622Z,93.35
2018-05-13T09:59:00.961Z,91.13
2018-05-13T10:00:04.322Z,95.45
2018-05-13T10:01:07.650Z,94.00
2018-05-13T10:02:11.122Z,93.35
2018-05-13T10:03:14.443Z,93.37
2018-05-13T10:04:17.764Z,92.40
2018-05-13T10:05:21.112Z,96.63
2018-05-13T10:06:24.457Z,103.25
2018-05-13T10:07:27.824Z,94.90
2018-05-13T10:08:31.198Z,98.97
2018-05-13T10:09:34.601Z,100.10
2018-05-13T10:10:37.900Z,108.82
2018-05-13T10:11:41.222Z,97.68
2018-05-13T10:12:44.571Z,92.53
2018-05-13T10:13:47.883Z,103.80
2018-05-13T10:14:51.380Z,97.37
2018-05-13T10:15:54.734Z,94.75
2018-05-13T10:16:58.054Z,105.63
2018-05-13T10:18:01.399Z,92.77
2018-05-13T10:19:04.777Z,98.60
2018-05-13T10:20:08.119Z,106.35
2018-05-13T10:21:11.488Z,100.25
2018-05-13T10:22:14.904Z,101.20
2018-05-13T10:23:18.309Z,102.57
2018-05-13T10:24:21.573Z,101.22
2018-05-13T10:25:24.900Z,95.35
2018-05-13T10:26:28.415Z,99.82
2018-05-13T10:27:31.750Z,102.03
2018-05-13T10:28:35.079Z,95.75
2018-05-13T10:29:38.396Z,93.28
2018-05-13T10:30:41.761Z,102.20
2018-05-13T10:31:45.149Z,101.15
2018-05-13T10:32:48.477Z,95.78
2018-05-13T10:33:51.806Z,94.80
2018-05-13T10:34:55.142Z,95.82
2018-05-13T10:35:58.467Z,88.90
2018-05-13T10:37:01.833Z,95.82
2018-05-13T10:38:05.146Z,106.18
2018-05-13T10:39:08.507Z,102.75
2018-05-13T10:40:11.816Z,98.62
2018-05-13T10:41:15.139Z,103.00
2018-05-13T10:42:18.524Z,98.12
2018-05-13T10:43:21.954Z,98.65
2018-05-13T10:44:25.279Z,103.93
2018-05-13T10:45:28.636Z,108.18
2018-05-13T10:46:31.964Z,105.93
2018-05-13T10:47:35.412Z,113.68
2018-05-13T10:48:38.916Z,103.53
2018-05-13T10:49:42.409Z,110.85
2018-05-13T10:50:45.747Z,98.65
2018-05-13T10:51:49.167Z,106.15
2018-05-13T10:52:52.519Z,99.70
2018-05-13T10:53:55.851Z,95.50
2018-05-13T10:54:59.243Z,97.72
2018-05-13T10:56:02.578Z,101.55
2018-05-13T10:57:05.905Z,99.82
2018-05-13T10:58:09.251Z,104.30
2018-05-13T10:59:12.575Z,97.45
2018-05-13T11:00:15.907Z,96.82
2018-05-13T11:01:19.232Z,87.25
2018-05-13T11:02:22.541Z,94.18
2018-05-13T11:03:25.894Z,100.35
2018-05-13T11:04:29.217Z,107.30
2018-05-13T11:05:32.543Z,88.22
2018-05-13T11:06:35.874Z,87.95
2018-05-13T11:07:39.207Z,96.45
2018-05-13T11:08:42.541Z,92.32
2018-05-13T11:09:45.875Z,103.70
2018-05-13T11:10:49.218Z,97.32
2018-05-13T11:11:52.551Z,95.35
2018-05-13T11:12:55.879Z,97.68
2018-05-13T11:13:59.242Z,104.82
2018-05-13T11:15:02.555Z,96.63
2018-05-13T11:16:05.887Z,99.50
2018-05-13T11:17:09.206Z,97.60
2018-05-13T11:18:12.522Z,89.10
2018-05-13T11:19:15.948Z,93.12
2018-05-13T11:20:19.281Z,100.62
2018-05-13T11:21:22.632Z,102.25
2018-05-13T11:22:25.946Z,96.65
2018-05-13T11:23:29.257Z,89.03
2018-05-13T11:24:32.615Z,95.93
2018-05-13T11:25:38.975Z,80.20
2018-05-13T11:26:42.364Z,90.12
2018-05-13T11:27:45.637Z,90.62
2018-05-13T11:28:48.973Z,93.65
2018-05-13T11:29:52.353Z,79.32
2018-05-13T11:30:55.675Z,81.20
2018-05-13T11:31:58.998Z,88.40
2018-05-13T11:33:02.327Z,85.10
2018-05-13T11:34:05.637Z,75.95
2018-05-13T11:35:08.982Z,82.20
2018-05-13T11:36:12.292Z,93.53
2018-05-13T11:37:15.609Z,83.20
2018-05-13T11:38:18.947Z,85.68
2018-05-13T11:39:22.279Z,84.53
2018-05-13T11:40:25.624Z,81.28
2018-05-13T11:41:28.951Z,73.95
2018-05-13T11:42:32.290Z,77.80
2018-05-13T11:43:35.667Z,78.95
2018-05-13T11:44:39.011Z,79.32
2018-05-13T11:45:42.368Z,82.53
2018-05-13T11:46:45.713Z,82.95
2018-05-13T11:47:49.011Z,84.35
2018-05-13T11:48:52.358Z,82.00
2018-05-13T11:49:55.681Z,73.97
2018-05-13T11:50:59.032Z,70.97
2018-05-13T11:52:02.363Z,75.10
2018-05-13T11:53:05.682Z,80.28
2018-05-13T11:54:09.015Z,75.62
2018-05-13T11:55:12.370Z,71.30
2018-05-13T11:56:15.714Z,69.85
2018-05-13T11:57:19.070Z,90.07
2018-05-13T11:58:22.393Z,73.95
2018-05-13T11:59:25.729Z,72.80
2018-05-13T12:00:29.075Z,69.03
2018-05-13T12:01:33.045Z,69.47
2018-05-13T12:02:36.387Z,75.62
2018-05-13T12:03:39.726Z,67.78
2018-05-13T12:04:43.325Z,63.28
2018-05-13T12:05:46.665Z,68.00
2018-05-13T12:06:50.067Z,62.85
2018-05-13T12:07:53.417Z,71.25
2018-05-13T12:08:56.783Z,70.30
2018-05-13T12:10:00.122Z,70.90
2018-05-13T12:11:03.431Z,66.97
2018-05-13T12:12:06.783Z,67.22
2018-05-13T12:13:10.146Z,61.05
2018-05-13T12:14:13.420Z,64.40
2018-05-13T12:15:16.801Z,66.97
2018-05-13T12:16:20.080Z,65.55
2018-05-13T12:17:23.411Z,66.75
2018-05-13T12:18:27.472Z,59.92
2018-05-13T12:19:30.784Z,58.85
2018-05-13T12:20:34.107Z,62.17
2018-05-13T12:21:37.446Z,63.50
2018-05-13T12:22:40.802Z,56.67
2018-05-13T12:23:44.111Z,60.10
2018-05-13T12:24:47.426Z,57.53
2018-05-13T12:25:50.747Z,59.90
2018-05-13T12:26:54.215Z,62.60
2018-05-13T12:27:57.606Z,57.78
2018-05-13T12:29:01.035Z,63.75
2018-05-13T12:30:04.247Z,59.75
2018-05-13T12:31:07.573Z,61.78
2018-05-13T12:32:10.897Z,53.45
2018-05-13T12:33:14.259Z,60.03
2018-05-13T12:34:17.600Z,61.22
2018-05-13T12:35:20.925Z,62.00
2018-05-13T12:36:24.249Z,52.90
2018-05-13T12:37:27.725Z,52.95
2018-05-13T12:38:31.058Z,55.35
2018-05-13T12:39:34.400Z,56.30
2018-05-13T12:40:37.736Z,54.33
2018-05-13T12:41:41.077Z,54.42
2018-05-13T12:42:44.382Z,57.50
2018-05-13T12:43:47.731Z,55.78
2018-05-13T12:44:51.054Z,56.80
2018-05-13T12:45:54.375Z,54.90
2018-05-13T12:46:57.697Z,53.13
2018-05-13T12:48:01.026Z,55.53
2018-05-13T12:49:04.369Z,54.40
2018-05-13T12:50:07.723Z,61.55
2018-05-13T12:51:11.019Z,58.75
2018-05-13T12:52:14.350Z,58.08
2018-05-13T12:53:17.666Z,54.90
2018-05-13T12:54:21.024Z,56.30
2018-05-13T12:55:24.365Z,59.83
2018-05-13T12:56:27.687Z,56.60
2018-05-13T12:57:31.009Z,60.22
2018-05-13T12:58:34.373Z,55.65
2018-05-13T12:59:37.723Z,55.30
2018-05-13T13:00:41.047Z,59.28
2018-05-13T13:01:44.365Z,49.92
2018-05-13T13:02:47.674Z,48.10
2018-05-13T13:03:51.016Z,61.03
2018-05-13T13:04:54.427Z,63.40
2018-05-13T13:05:57.735Z,58.30
2018-05-13T13:07:01.072Z,52.10
2018-05-13T13:08:04.427Z,55.53
2018-05-13T13:09:07.807Z,57.75
2018-05-13T13:10:11.108Z,61.60
2018-05-13T13:11:14.413Z,54.03
2018-05-13T13:12:17.739Z,49.85
2018-05-13T13:13:21.045Z,59.00
2018-05-13T13:14:24.388Z,57.50
2018-05-13T13:15:27.719Z,54.15
2018-05-13T13:16:31.058Z,55.03
2018-05-13T13:17:34.396Z,53.30
2018-05-13T13:18:37.746Z,59.28
2018-05-13T13:19:41.082Z,56.33
2018-05-13T13:20:44.428Z,59.90
2018-05-13T13:21:47.761Z,58.53
2018-05-13T13:22:51.087Z,59.08
2018-05-13T13:23:54.419Z,59.63
2018-05-13T13:24:57.731Z,62.03
2018-05-13T13:26:01.121Z,54.95
2018-05-13T13:27:04.642Z,62.42
2018-05-13T13:28:08.197Z,63.13
2018-05-13T13:29:11.536Z,62.78
2018-05-13T13:30:14.877Z,59.85
2018-05-13T13:31:18.245Z,62.90
2018-05-13T13:32:21.571Z,62.85
2018-05-13T13:33:24.894Z,62.67
2018-05-13T13:34:28.208Z,59.58
2018-05-13T13:35:31.533Z,58.47
2018-05-13T13:36:34.905Z,69.85
2018-05-13T13:37:38.314Z,65.18
2018-05-13T13:38:41.630Z,63.05